Terminal Aerodrome Forecast
Issued by NWS

Home | Current Version | Previous Version | Text Only | Print | Product List | Glossary Off
Versions: 1 2 3 4 5 6 7 8 9 10 11 12 13 14 15 16 17 18 19 20 21 22 23

903
FTUS43 KABR 291028 AAA
TAFATY
TAF AMD
KATY 291028Z 2910/3006 29006KT P6SM SKC
      TEMPO 2910/2913 3SM BR
     FM291400 31012G20KT P6SM SCT250
     FM292300 28009KT P6SM SCT250
     FM300300 24006KT P6SM FEW250=

USA.gov is the U.S. government's official web portal to all federal, state and local government web resources and services.